sensor_id;sensor_type;location;lat;lon;timestamp;temperature;humidity
16523;DHT22;19889;52.546;13.348;2022-07-18T00:00:11;19.40;92.00
16523;DHT22;19889;52.546;13.348;2022-07-18T00:02:38;19.40;91.70
16523;DHT22;19889;52.546;13.348;2022-07-18T00:05:07;19.40;91.70
16523;DHT22;19889;52.546;13.348;2022-07-18T00:07:34;19.40;91.70
16523;DHT22;19889;52.546;13.348;2022-07-18T00:10:00;19.40;91.70
16523;DHT22;19889;52.546;13.348;2022-07-18T00:12:27;19.30;91.70
16523;DHT22;19889;52.546;13.348;2022-07-18T00:14:54;19.30;91.80
16523;DHT22;19889;52.546;13.348;2022-07-18T00:17:21;19.30;91.90
16523;DHT22;19889;52.546;13.348;2022-07-18T00:19:48;19.30;91.90
16523;DHT22;19889;52.546;13.348;2022-07-18T00:22:16;19.20;91.90
16523;DHT22;19889;52.546;13.348;2022-07-18T00:24:43;19.30;92.00
16523;DHT22;19889;52.546;13.348;2022-07-18T00:27:09;19.30;92.10
16523;DHT22;19889;52.546;13.348;2022-07-18T00:29:36;19.10;92.10
16523;DHT22;19889;52.546;13.348;2022-07-18T00:32:05;19.30;92.20
16523;DHT22;19889;52.546;13.348;2022-07-18T00:34:33;19.30;92.20
16523;DHT22;19889;52.546;13.348;2022-07-18T00:36:59;19.30;92.20
16523;DHT22;19889;52.546;13.348;2022-07-18T00:39:27;19.20;92.30
16523;DHT22;19889;52.546;13.348;2022-07-18T00:41:54;19.20;92.30
16523;DHT22;19889;52.546;13.348;2022-07-18T00:44:24;19.20;92.40
16523;DHT22;19889;52.546;13.348;2022-07-18T00:46:52;19.20;92.50
16523;DHT22;19889;52.546;13.348;2022-07-18T00:49:20;19.20;92.50
16523;DHT22;19889;52.546;13.348;2022-07-18T00:51:47;19.20;92.50
16523;DHT22;19889;52.546;13.348;2022-07-18T00:54:14;19.20;92.50
16523;DHT22;19889;52.546;13.348;2022-07-18T00:56:44;19.20;92.60
16523;DHT22;19889;52.546;13.348;2022-07-18T00:59:12;19.10;92.70
16523;DHT22;19889;52.546;13.348;2022-07-18T01:01:39;19.10;92.70
16523;DHT22;19889;52.546;13.348;2022-07-18T01:04:15;19.10;92.70
16523;DHT22;19889;52.546;13.348;2022-07-18T01:06:43;19.10;92.80
16523;DHT22;19889;52.546;13.348;2022-07-18T01:09:10;19.10;92.70
16523;DHT22;19889;52.546;13.348;2022-07-18T01:11:37;19.10;92.80
16523;DHT22;19889;52.546;13.348;2022-07-18T01:14:06;19.10;92.80
16523;DHT22;19889;52.546;13.348;2022-07-18T01:16:34;19.00;92.90
16523;DHT22;19889;52.546;13.348;2022-07-18T01:19:01;19.00;92.90
16523;DHT22;19889;52.546;13.348;2022-07-18T01:21:30;19.00;92.90
16523;DHT22;19889;52.546;13.348;2022-07-18T01:23:57;19.00;93.00
16523;DHT22;19889;52.546;13.348;2022-07-18T01:26:25;19.00;93.00
16523;DHT22;19889;52.546;13.348;2022-07-18T01:28:52;19.00;93.00
16523;DHT22;19889;52.546;13.348;2022-07-18T01:31:19;19.00;93.00
16523;DHT22;19889;52.546;13.348;2022-07-18T01:33:46;19.00;93.00
16523;DHT22;19889;52.546;13.348;2022-07-18T01:36:12;18.90;93.00
16523;DHT22;19889;52.546;13.348;2022-07-18T01:38:41;18.90;93.00
16523;DHT22;19889;52.546;13.348;2022-07-18T01:41:07;18.90;93.10
16523;DHT22;19889;52.546;13.348;2022-07-18T01:43:34;18.80;93.10
16523;DHT22;19889;52.546;13.348;2022-07-18T01:46:05;18.80;93.10
16523;DHT22;19889;52.546;13.348;2022-07-18T01:48:32;19.00;93.30
16523;DHT22;19889;52.546;13.348;2022-07-18T01:51:00;18.70;93.30
16523;DHT22;19889;52.546;13.348;2022-07-18T01:53:27;18.80;94.50
16523;DHT22;19889;52.546;13.348;2022-07-18T01:55:55;19.20;96.10
16523;DHT22;19889;52.546;13.348;2022-07-18T01:58:22;18.90;95.40
16523;DHT22;19889;52.546;13.348;2022-07-18T02:00:48;19.00;94.50
16523;DHT22;19889;52.546;13.348;2022-07-18T02:03:15;18.80;94.10
16523;DHT22;19889;52.546;13.348;2022-07-18T02:05:42;18.80;94.20
16523;DHT22;19889;52.546;13.348;2022-07-18T02:08:09;18.70;95.60
16523;DHT22;19889;52.546;13.348;2022-07-18T02:10:36;18.60;96.40
16523;DHT22;19889;52.546;13.348;2022-07-18T02:13:04;18.50;93.50
16523;DHT22;19889;52.546;13.348;2022-07-18T02:15:31;18.50;93.70
16523;DHT22;19889;52.546;13.348;2022-07-18T02:17:58;18.50;94.40
16523;DHT22;19889;52.546;13.348;2022-07-18T02:20:25;18.10;93.70
16523;DHT22;19889;52.546;13.348;2022-07-18T02:22:52;18.40;94.00
16523;DHT22;19889;52.546;13.348;2022-07-18T02:25:19;19.60;94.30
16523;DHT22;19889;52.546;13.348;2022-07-18T02:27:46;18.30;93.90
16523;DHT22;19889;52.546;13.348;2022-07-18T02:30:15;18.30;94.00
16523;DHT22;19889;52.546;13.348;2022-07-18T02:32:42;18.10;95.40
16523;DHT22;19889;52.546;13.348;2022-07-18T02:35:09;18.30;94.00
16523;DHT22;19889;52.546;13.348;2022-07-18T02:37:37;18.20;94.00
16523;DHT22;19889;52.546;13.348;2022-07-18T02:40:07;18.20;94.10
16523;DHT22;19889;52.546;13.348;2022-07-18T02:42:34;18.30;95.30
16523;DHT22;19889;52.546;13.348;2022-07-18T02:45:01;18.40;98.30
16523;DHT22;19889;52.546;13.348;2022-07-18T02:47:29;19.40;95.30
16523;DHT22;19889;52.546;13.348;2022-07-18T02:49:56;18.40;96.10
16523;DHT22;19889;52.546;13.348;2022-07-18T02:52:23;18.90;94.90
16523;DHT22;19889;52.546;13.348;2022-07-18T02:54:50;18.20;94.50
16523;DHT22;19889;52.546;13.348;2022-07-18T02:57:17;18.60;94.80
16523;DHT22;19889;52.546;13.348;2022-07-18T02:59:43;17.90;94.80
16523;DHT22;19889;52.546;13.348;2022-07-18T03:02:11;18.10;96.20
16523;DHT22;19889;52.546;13.348;2022-07-18T03:04:39;18.20;99.20
16523;DHT22;19889;52.546;13.348;2022-07-18T03:07:06;18.50;99.90
16523;DHT22;19889;52.546;13.348;2022-07-18T03:09:33;18.30;95.60
16523;DHT22;19889;52.546;13.348;2022-07-18T03:11:59;18.20;99.90
16523;DHT22;19889;52.546;13.348;2022-07-18T03:14:26;18.30;99.90
16523;DHT22;19889;52.546;13.348;2022-07-18T03:16:53;18.10;99.90
16523;DHT22;19889;52.546;13.348;2022-07-18T03:19:20;18.20;99.90
16523;DHT22;19889;52.546;13.348;2022-07-18T03:21:48;18.10;99.90
16523;DHT22;19889;52.546;13.348;2022-07-18T03:26:44;17.90;94.60
16523;DHT22;19889;52.546;13.348;2022-07-18T03:29:14;19.50;95.60
16523;DHT22;19889;52.546;13.348;2022-07-18T03:31:45;19.10;95.50
16523;DHT22;19889;52.546;13.348;2022-07-18T03:34:12;17.80;95.20
16523;DHT22;19889;52.546;13.348;2022-07-18T03:36:38;17.80;95.30
16523;DHT22;19889;52.546;13.348;2022-07-18T03:39:08;17.80;95.40
16523;DHT22;19889;52.546;13.348;2022-07-18T03:41:35;17.80;95.40
16523;DHT22;19889;52.546;13.348;2022-07-18T03:44:03;17.70;95.50
16523;DHT22;19889;52.546;13.348;2022-07-18T03:46:30;17.70;95.60
16523;DHT22;19889;52.546;13.348;2022-07-18T03:48:58;17.70;95.60
16523;DHT22;19889;52.546;13.348;2022-07-18T03:51:25;17.80;95.70
16523;DHT22;19889;52.546;13.348;2022-07-18T03:53:52;17.70;95.60
16523;DHT22;19889;52.546;13.348;2022-07-18T03:56:20;17.80;95.70
16523;DHT22;19889;52.546;13.348;2022-07-18T03:58:47;17.80;95.70
16523;DHT22;19889;52.546;13.348;2022-07-18T04:01:14;17.70;95.70
16523;DHT22;19889;52.546;13.348;2022-07-18T04:03:40;17.80;95.80
16523;DHT22;19889;52.546;13.348;2022-07-18T04:06:07;17.80;95.80
16523;DHT22;19889;52.546;13.348;2022-07-18T04:08:34;17.70;95.90
16523;DHT22;19889;52.546;13.348;2022-07-18T04:11:01;17.80;96.00
16523;DHT22;19889;52.546;13.348;2022-07-18T04:13:29;17.70;95.90
16523;DHT22;19889;52.546;13.348;2022-07-18T04:15:56;17.80;96.00
16523;DHT22;19889;52.546;13.348;2022-07-18T04:18:23;17.70;96.00
16523;DHT22;19889;52.546;13.348;2022-07-18T04:20:49;17.70;96.10
16523;DHT22;19889;52.546;13.348;2022-07-18T04:23:16;17.70;96.20
16523;DHT22;19889;52.546;13.348;2022-07-18T04:25:44;17.80;96.30
16523;DHT22;19889;52.546;13.348;2022-07-18T04:28:12;17.70;96.30
16523;DHT22;19889;52.546;13.348;2022-07-18T04:30:41;17.70;96.30
16523;DHT22;19889;52.546;13.348;2022-07-18T04:33:09;17.70;96.40
16523;DHT22;19889;52.546;13.348;2022-07-18T04:35:37;17.70;96.40
16523;DHT22;19889;52.546;13.348;2022-07-18T04:38:05;17.70;96.40
16523;DHT22;19889;52.546;13.348;2022-07-18T04:40:32;17.80;96.50
16523;DHT22;19889;52.546;13.348;2022-07-18T04:42:59;17.90;96.60
16523;DHT22;19889;52.546;13.348;2022-07-18T04:45:26;17.80;96.60
16523;DHT22;19889;52.546;13.348;2022-07-18T04:47:54;17.80;96.60
16523;DHT22;19889;52.546;13.348;2022-07-18T04:50:22;17.90;96.70
16523;DHT22;19889;52.546;13.348;2022-07-18T04:52:50;17.80;97.00
16523;DHT22;19889;52.546;13.348;2022-07-18T04:55:19;17.80;96.60
16523;DHT22;19889;52.546;13.348;2022-07-18T04:57:47;18.60;96.90
16523;DHT22;19889;52.546;13.348;2022-07-18T05:00:16;17.90;96.70
16523;DHT22;19889;52.546;13.348;2022-07-18T05:02:44;17.90;96.80
16523;DHT22;19889;52.546;13.348;2022-07-18T05:05:14;17.90;96.80
16523;DHT22;19889;52.546;13.348;2022-07-18T05:07:43;17.80;96.80
16523;DHT22;19889;52.546;13.348;2022-07-18T05:10:14;17.90;96.90
16523;DHT22;19889;52.546;13.348;2022-07-18T05:12:45;18.00;96.90
16523;DHT22;19889;52.546;13.348;2022-07-18T05:15:14;18.00;97.10
16523;DHT22;19889;52.546;13.348;2022-07-18T05:17:41;18.10;96.90
16523;DHT22;19889;52.546;13.348;2022-07-18T05:20:10;18.10;96.90
16523;DHT22;19889;52.546;13.348;2022-07-18T05:22:39;18.10;96.90
16523;DHT22;19889;52.546;13.348;2022-07-18T05:25:07;18.20;96.90
16523;DHT22;19889;52.546;13.348;2022-07-18T05:27:34;18.20;96.90
16523;DHT22;19889;52.546;13.348;2022-07-18T05:30:02;18.30;97.00
16523;DHT22;19889;52.546;13.348;2022-07-18T05:32:29;18.30;97.00
16523;DHT22;19889;52.546;13.348;2022-07-18T05:34:56;18.90;97.20
16523;DHT22;19889;52.546;13.348;2022-07-18T05:37:23;18.40;97.00
16523;DHT22;19889;52.546;13.348;2022-07-18T05:39:51;18.40;97.00
16523;DHT22;19889;52.546;13.348;2022-07-18T05:42:18;18.50;97.10
16523;DHT22;19889;52.546;13.348;2022-07-18T05:44:45;18.50;97.10
16523;DHT22;19889;52.546;13.348;2022-07-18T05:47:12;18.70;97.10
16523;DHT22;19889;52.546;13.348;2022-07-18T05:49:39;18.60;97.10
16523;DHT22;19889;52.546;13.348;2022-07-18T05:52:07;18.60;97.00
16523;DHT22;19889;52.546;13.348;2022-07-18T05:54:34;18.70;97.00
16523;DHT22;19889;52.546;13.348;2022-07-18T05:57:02;18.80;97.00
16523;DHT22;19889;52.546;13.348;2022-07-18T05:59:29;18.80;97.00
16523;DHT22;19889;52.546;13.348;2022-07-18T06:01:56;18.80;96.90
16523;DHT22;19889;52.546;13.348;2022-07-18T06:04:23;18.90;96.90
16523;DHT22;19889;52.546;13.348;2022-07-18T06:06:49;18.90;96.90
16523;DHT22;19889;52.546;13.348;2022-07-18T06:09:17;19.00;96.90
16523;DHT22;19889;52.546;13.348;2022-07-18T06:11:44;19.10;96.90
16523;DHT22;19889;52.546;13.348;2022-07-18T06:14:12;19.10;96.80
16523;DHT22;19889;52.546;13.348;2022-07-18T06:16:39;19.20;96.80
16523;DHT22;19889;52.546;13.348;2022-07-18T06:19:07;19.20;96.80
16523;DHT22;19889;52.546;13.348;2022-07-18T06:21:34;19.30;97.20
16523;DHT22;19889;52.546;13.348;2022-07-18T06:24:00;19.30;96.80
16523;DHT22;19889;52.546;13.348;2022-07-18T06:26:27;19.40;96.80
16523;DHT22;19889;52.546;13.348;2022-07-18T06:28:54;19.50;96.70
16523;DHT22;19889;52.546;13.348;2022-07-18T06:31:23;19.50;96.70
16523;DHT22;19889;52.546;13.348;2022-07-18T06:33:49;19.60;96.70
16523;DHT22;19889;52.546;13.348;2022-07-18T06:36:16;19.60;96.70
16523;DHT22;19889;52.546;13.348;2022-07-18T06:38:43;19.70;96.60
16523;DHT22;19889;52.546;13.348;2022-07-18T06:41:11;19.70;96.60
16523;DHT22;19889;52.546;13.348;2022-07-18T06:43:38;19.80;96.60
16523;DHT22;19889;52.546;13.348;2022-07-18T06:46:05;19.90;96.60
16523;DHT22;19889;52.546;13.348;2022-07-18T06:48:33;19.90;96.60
16523;DHT22;19889;52.546;13.348;2022-07-18T06:51:01;20.00;96.60
16523;DHT22;19889;52.546;13.348;2022-07-18T06:53:28;20.00;96.50
16523;DHT22;19889;52.546;13.348;2022-07-18T06:55:55;20.10;96.50
16523;DHT22;19889;52.546;13.348;2022-07-18T06:58:22;20.10;96.40
16523;DHT22;19889;52.546;13.348;2022-07-18T07:00:49;20.20;96.40
16523;DHT22;19889;52.546;13.348;2022-07-18T07:03:17;20.20;96.40
16523;DHT22;19889;52.546;13.348;2022-07-18T07:05:45;20.30;96.40
16523;DHT22;19889;52.546;13.348;2022-07-18T07:08:12;20.40;96.30
16523;DHT22;19889;52.546;13.348;2022-07-18T07:10:39;21.20;96.50
16523;DHT22;19889;52.546;13.348;2022-07-18T07:13:06;20.40;96.10
16523;DHT22;19889;52.546;13.348;2022-07-18T07:15:33;20.60;95.90
16523;DHT22;19889;52.546;13.348;2022-07-18T07:18:00;20.70;95.70
16523;DHT22;19889;52.546;13.348;2022-07-18T07:20:27;20.80;95.50
16523;DHT22;19889;52.546;13.348;2022-07-18T07:22:56;20.90;95.20
16523;DHT22;19889;52.546;13.348;2022-07-18T07:25:25;20.90;95.00
16523;DHT22;19889;52.546;13.348;2022-07-18T07:27:53;21.00;94.90
16523;DHT22;19889;52.546;13.348;2022-07-18T07:30:20;20.90;94.80
16523;DHT22;19889;52.546;13.348;2022-07-18T07:32:46;20.90;94.70
16523;DHT22;19889;52.546;13.348;2022-07-18T07:35:15;21.00;94.60
16523;DHT22;19889;52.546;13.348;2022-07-18T07:37:43;21.00;94.20
16523;DHT22;19889;52.546;13.348;2022-07-18T07:40:12;21.10;94.10
16523;DHT22;19889;52.546;13.348;2022-07-18T07:42:39;21.10;93.90
16523;DHT22;19889;52.546;13.348;2022-07-18T07:45:07;21.20;93.90
16523;DHT22;19889;52.546;13.348;2022-07-18T07:47:34;21.20;93.70
16523;DHT22;19889;52.546;13.348;2022-07-18T07:50:02;21.20;93.60
16523;DHT22;19889;52.546;13.348;2022-07-18T07:52:29;21.20;93.50
16523;DHT22;19889;52.546;13.348;2022-07-18T07:54:56;21.30;93.40
16523;DHT22;19889;52.546;13.348;2022-07-18T07:57:24;21.40;93.30
16523;DHT22;19889;52.546;13.348;2022-07-18T07:59:51;21.50;93.20
16523;DHT22;19889;52.546;13.348;2022-07-18T08:02:18;21.50;93.10
16523;DHT22;19889;52.546;13.348;2022-07-18T08:04:45;21.50;93.00
16523;DHT22;19889;52.546;13.348;2022-07-18T08:07:12;21.60;92.90
16523;DHT22;19889;52.546;13.348;2022-07-18T08:09:39;21.60;92.80
16523;DHT22;19889;52.546;13.348;2022-07-18T08:12:06;21.70;92.80
16523;DHT22;19889;52.546;13.348;2022-07-18T08:14:34;21.80;92.60
16523;DHT22;19889;52.546;13.348;2022-07-18T08:17:03;21.90;92.50
16523;DHT22;19889;52.546;13.348;2022-07-18T08:19:30;22.00;92.40
16523;DHT22;19889;52.546;13.348;2022-07-18T08:21:57;22.10;92.20
16523;DHT22;19889;52.546;13.348;2022-07-18T08:24:24;22.20;92.00
16523;DHT22;19889;52.546;13.348;2022-07-18T08:26:51;22.30;91.90
16523;DHT22;19889;52.546;13.348;2022-07-18T08:29:17;22.40;91.70
16523;DHT22;19889;52.546;13.348;2022-07-18T08:31:46;22.60;91.40
16523;DHT22;19889;52.546;13.348;2022-07-18T08:34:12;22.60;91.00
16523;DHT22;19889;52.546;13.348;2022-07-18T08:36:39;22.70;90.90
16523;DHT22;19889;52.546;13.348;2022-07-18T08:39:06;22.70;90.80
16523;DHT22;19889;52.546;13.348;2022-07-18T08:41:33;22.80;90.60
16523;DHT22;19889;52.546;13.348;2022-07-18T08:44:02;22.80;90.50
16523;DHT22;19889;52.546;13.348;2022-07-18T08:46:32;22.80;90.40
16523;DHT22;19889;52.546;13.348;2022-07-18T08:49:03;22.80;90.30
16523;DHT22;19889;52.546;13.348;2022-07-18T08:51:30;22.80;90.20
16523;DHT22;19889;52.546;13.348;2022-07-18T08:53:57;22.80;90.20
16523;DHT22;19889;52.546;13.348;2022-07-18T08:56:24;22.80;90.20
16523;DHT22;19889;52.546;13.348;2022-07-18T08:58:51;22.80;90.10
16523;DHT22;19889;52.546;13.348;2022-07-18T09:01:17;22.80;90.00
16523;DHT22;19889;52.546;13.348;2022-07-18T09:03:44;22.90;89.90
16523;DHT22;19889;52.546;13.348;2022-07-18T09:06:41;22.90;89.90
16523;DHT22;19889;52.546;13.348;2022-07-18T09:09:11;23.00;89.60
16523;DHT22;19889;52.546;13.348;2022-07-18T09:11:52;23.00;89.60
16523;DHT22;19889;52.546;13.348;2022-07-18T09:14:34;23.10;88.90
16523;DHT22;19889;52.546;13.348;2022-07-18T09:17:12;23.30;88.40
16523;DHT22;19889;52.546;13.348;2022-07-18T09:19:42;23.60;87.90
16523;DHT22;19889;52.546;13.348;2022-07-18T09:22:22;23.90;87.60
16523;DHT22;19889;52.546;13.348;2022-07-18T09:24:55;24.80;87.00
16523;DHT22;19889;52.546;13.348;2022-07-18T09:27:23;25.80;86.60
16523;DHT22;19889;52.546;13.348;2022-07-18T09:30:13;26.60;85.10
16523;DHT22;19889;52.546;13.348;2022-07-18T09:32:43;26.70;81.20
16523;DHT22;19889;52.546;13.348;2022-07-18T09:35:12;26.50;80.50
16523;DHT22;19889;52.546;13.348;2022-07-18T09:37:55;26.30;79.80
16523;DHT22;19889;52.546;13.348;2022-07-18T09:40:24;26.00;79.10
16523;DHT22;19889;52.546;13.348;2022-07-18T09:42:52;25.80;79.70
16523;DHT22;19889;52.546;13.348;2022-07-18T09:45:25;25.60;79.90
16523;DHT22;19889;52.546;13.348;2022-07-18T09:47:53;25.40;80.10
16523;DHT22;19889;52.546;13.348;2022-07-18T09:50:27;25.20;80.00
16523;DHT22;19889;52.546;13.348;2022-07-18T09:53:07;25.10;80.00
16523;DHT22;19889;52.546;13.348;2022-07-18T09:55:35;24.90;80.00
16523;DHT22;19889;52.546;13.348;2022-07-18T09:58:06;24.80;80.30
16523;DHT22;19889;52.546;13.348;2022-07-18T10:00:35;24.80;80.40
16523;DHT22;19889;52.546;13.348;2022-07-18T10:03:03;24.70;80.30
16523;DHT22;19889;52.546;13.348;2022-07-18T10:05:33;24.70;80.30
16523;DHT22;19889;52.546;13.348;2022-07-18T10:08:03;24.60;80.40
16523;DHT22;19889;52.546;13.348;2022-07-18T10:10:31;24.50;80.20
16523;DHT22;19889;52.546;13.348;2022-07-18T10:12:59;24.50;80.20
16523;DHT22;19889;52.546;13.348;2022-07-18T10:15:28;24.40;79.90
16523;DHT22;19889;52.546;13.348;2022-07-18T10:17:56;24.40;80.10
16523;DHT22;19889;52.546;13.348;2022-07-18T10:20:33;24.40;80.10
16523;DHT22;19889;52.546;13.348;2022-07-18T10:23:08;24.40;80.20
16523;DHT22;19889;52.546;13.348;2022-07-18T10:25:36;24.40;80.20
16523;DHT22;19889;52.546;13.348;2022-07-18T10:28:06;24.50;80.50
16523;DHT22;19889;52.546;13.348;2022-07-18T10:30:40;24.50;80.20
16523;DHT22;19889;52.546;13.348;2022-07-18T10:33:39;24.60;80.20
16523;DHT22;19889;52.546;13.348;2022-07-18T10:36:08;24.60;79.60
16523;DHT22;19889;52.546;13.348;2022-07-18T10:38:37;24.70;79.80
16523;DHT22;19889;52.546;13.348;2022-07-18T10:41:07;24.70;79.70
16523;DHT22;19889;52.546;13.348;2022-07-18T10:43:42;24.80;79.60
16523;DHT22;19889;52.546;13.348;2022-07-18T10:46:11;24.80;79.60
16523;DHT22;19889;52.546;13.348;2022-07-18T10:48:55;24.80;79.40
16523;DHT22;19889;52.546;13.348;2022-07-18T10:51:31;24.80;78.90
16523;DHT22;19889;52.546;13.348;2022-07-18T10:54:10;24.80;79.10
16523;DHT22;19889;52.546;13.348;2022-07-18T10:57:09;24.80;79.30
16523;DHT22;19889;52.546;13.348;2022-07-18T10:59:38;24.80;79.20
16523;DHT22;19889;52.546;13.348;2022-07-18T11:02:06;24.80;79.40
16523;DHT22;19889;52.546;13.348;2022-07-18T11:04:40;24.80;79.40
16523;DHT22;19889;52.546;13.348;2022-07-18T11:07:12;24.80;78.70
16523;DHT22;19889;52.546;13.348;2022-07-18T11:09:43;24.80;78.30
16523;DHT22;19889;52.546;13.348;2022-07-18T11:12:34;24.80;78.10
16523;DHT22;19889;52.546;13.348;2022-07-18T11:15:09;24.80;78.10
16523;DHT22;19889;52.546;13.348;2022-07-18T11:18:00;24.80;77.90
16523;DHT22;19889;52.546;13.348;2022-07-18T11:20:39;24.80;77.30
16523;DHT22;19889;52.546;13.348;2022-07-18T11:23:15;24.80;77.00
16523;DHT22;19889;52.546;13.348;2022-07-18T11:25:44;24.80;77.30
16523;DHT22;19889;52.546;13.348;2022-07-18T11:28:11;24.80;77.60
16523;DHT22;19889;52.546;13.348;2022-07-18T11:30:40;24.80;77.40
16523;DHT22;19889;52.546;13.348;2022-07-18T11:33:21;24.80;77.60
16523;DHT22;19889;52.546;13.348;2022-07-18T11:35:49;24.80;77.50
16523;DHT22;19889;52.546;13.348;2022-07-18T11:38:17;24.80;77.90
16523;DHT22;19889;52.546;13.348;2022-07-18T11:40:49;24.80;77.60
16523;DHT22;19889;52.546;13.348;2022-07-18T11:43:21;24.80;77.30
16523;DHT22;19889;52.546;13.348;2022-07-18T11:45:47;24.80;77.20
16523;DHT22;19889;52.546;13.348;2022-07-18T11:48:21;25.50;77.80
16523;DHT22;19889;52.546;13.348;2022-07-18T11:50:48;24.80;76.80
16523;DHT22;19889;52.546;13.348;2022-07-18T11:53:15;24.80;77.00
16523;DHT22;19889;52.546;13.348;2022-07-18T11:55:42;24.80;77.20
16523;DHT22;19889;52.546;13.348;2022-07-18T11:58:12;24.90;77.40
16523;DHT22;19889;52.546;13.348;2022-07-18T12:00:40;24.90;76.90
16523;DHT22;19889;52.546;13.348;2022-07-18T12:03:08;24.90;76.80
16523;DHT22;19889;52.546;13.348;2022-07-18T12:05:37;24.90;76.90
16523;DHT22;19889;52.546;13.348;2022-07-18T12:08:26;24.90;77.00
16523;DHT22;19889;52.546;13.348;2022-07-18T12:11:11;24.90;76.90
16523;DHT22;19889;52.546;13.348;2022-07-18T12:13:47;25.00;77.00
16523;DHT22;19889;52.546;13.348;2022-07-18T12:16:30;25.00;77.10
16523;DHT22;19889;52.546;13.348;2022-07-18T12:18:59;25.10;76.60
16523;DHT22;19889;52.546;13.348;2022-07-18T12:21:41;25.20;76.70
16523;DHT22;19889;52.546;13.348;2022-07-18T12:24:26;25.20;76.20
16523;DHT22;19889;52.546;13.348;2022-07-18T12:27:14;25.30;76.10
16523;DHT22;19889;52.546;13.348;2022-07-18T12:30:17;25.40;75.80
16523;DHT22;19889;52.546;13.348;2022-07-18T12:32:49;25.40;75.60
16523;DHT22;19889;52.546;13.348;2022-07-18T12:35:19;25.50;75.30
16523;DHT22;19889;52.546;13.348;2022-07-18T12:37:54;25.60;75.50
16523;DHT22;19889;52.546;13.348;2022-07-18T12:40:22;25.60;75.40
16523;DHT22;19889;52.546;13.348;2022-07-18T12:42:49;25.70;75.40
16523;DHT22;19889;52.546;13.348;2022-07-18T12:45:29;25.70;75.30
16523;DHT22;19889;52.546;13.348;2022-07-18T12:47:55;25.80;75.00
16523;DHT22;19889;52.546;13.348;2022-07-18T12:50:22;25.90;74.50
16523;DHT22;19889;52.546;13.348;2022-07-18T12:52:49;25.90;74.10
16523;DHT22;19889;52.546;13.348;2022-07-18T12:55:16;26.00;74.10
16523;DHT22;19889;52.546;13.348;2022-07-18T12:57:43;26.00;74.20
16523;DHT22;19889;52.546;13.348;2022-07-18T13:00:11;26.10;74.10
16523;DHT22;19889;52.546;13.348;2022-07-18T13:02:39;26.20;73.90
16523;DHT22;19889;52.546;13.348;2022-07-18T13:05:07;26.20;73.70
16523;DHT22;19889;52.546;13.348;2022-07-18T13:07:33;26.30;73.70
16523;DHT22;19889;52.546;13.348;2022-07-18T13:10:00;26.30;73.50
16523;DHT22;19889;52.546;13.348;2022-07-18T13:12:27;26.30;72.70
16523;DHT22;19889;52.546;13.348;2022-07-18T13:14:54;26.30;72.60
16523;DHT22;19889;52.546;13.348;2022-07-18T13:17:21;26.30;72.40
16523;DHT22;19889;52.546;13.348;2022-07-18T13:19:49;26.30;72.40
16523;DHT22;19889;52.546;13.348;2022-07-18T13:22:17;26.20;72.60
16523;DHT22;19889;52.546;13.348;2022-07-18T13:24:44;26.20;72.60
16523;DHT22;19889;52.546;13.348;2022-07-18T13:27:10;26.10;72.50
16523;DHT22;19889;52.546;13.348;2022-07-18T13:29:37;26.10;72.50
16523;DHT22;19889;52.546;13.348;2022-07-18T13:32:05;26.00;72.40
16523;DHT22;19889;52.546;13.348;2022-07-18T13:34:31;26.00;72.50
16523;DHT22;19889;52.546;13.348;2022-07-18T13:37:00;26.00;72.80
16523;DHT22;19889;52.546;13.348;2022-07-18T13:39:26;26.00;72.90
16523;DHT22;19889;52.546;13.348;2022-07-18T13:41:53;26.00;72.70
16523;DHT22;19889;52.546;13.348;2022-07-18T13:44:20;26.00;72.60
16523;DHT22;19889;52.546;13.348;2022-07-18T13:46:47;26.00;72.70
16523;DHT22;19889;52.546;13.348;2022-07-18T13:49:14;26.00;72.80
16523;DHT22;19889;52.546;13.348;2022-07-18T13:51:41;26.00;73.00
16523;DHT22;19889;52.546;13.348;2022-07-18T13:54:10;25.90;73.00
16523;DHT22;19889;52.546;13.348;2022-07-18T13:56:36;25.90;73.00
16523;DHT22;19889;52.546;13.348;2022-07-18T13:59:03;25.90;73.00
16523;DHT22;19889;52.546;13.348;2022-07-18T14:01:30;25.90;73.00
16523;DHT22;19889;52.546;13.348;2022-07-18T14:03:57;25.90;73.20
16523;DHT22;19889;52.546;13.348;2022-07-18T14:06:24;26.00;73.10
16523;DHT22;19889;52.546;13.348;2022-07-18T14:08:51;26.00;72.80
16523;DHT22;19889;52.546;13.348;2022-07-18T14:11:19;26.10;72.60
16523;DHT22;19889;52.546;13.348;2022-07-18T14:13:46;26.10;72.30
16523;DHT22;19889;52.546;13.348;2022-07-18T14:16:13;26.10;72.30
16523;DHT22;19889;52.546;13.348;2022-07-18T14:18:40;26.20;72.20
16523;DHT22;19889;52.546;13.348;2022-07-18T14:21:07;26.20;72.10
16523;DHT22;19889;52.546;13.348;2022-07-18T14:23:34;26.20;71.80
16523;DHT22;19889;52.546;13.348;2022-07-18T14:26:01;26.10;71.80
16523;DHT22;19889;52.546;13.348;2022-07-18T14:28:29;26.10;71.90
16523;DHT22;19889;52.546;13.348;2022-07-18T14:30:56;26.10;72.00
16523;DHT22;19889;52.546;13.348;2022-07-18T14:33:22;26.00;71.90
16523;DHT22;19889;52.546;13.348;2022-07-18T14:35:49;26.10;71.80
16523;DHT22;19889;52.546;13.348;2022-07-18T14:38:16;26.10;71.70
16523;DHT22;19889;52.546;13.348;2022-07-18T14:40:43;26.10;71.60
16523;DHT22;19889;52.546;13.348;2022-07-18T14:43:10;26.20;71.50
16523;DHT22;19889;52.546;13.348;2022-07-18T14:45:38;26.20;71.60
16523;DHT22;19889;52.546;13.348;2022-07-18T14:48:06;26.20;71.50
16523;DHT22;19889;52.546;13.348;2022-07-18T14:50:32;26.20;71.40
16523;DHT22;19889;52.546;13.348;2022-07-18T14:52:59;26.20;71.20
16523;DHT22;19889;52.546;13.348;2022-07-18T14:55:26;26.20;71.00
16523;DHT22;19889;52.546;13.348;2022-07-18T14:57:53;26.20;70.80
16523;DHT22;19889;52.546;13.348;2022-07-18T15:00:20;26.20;70.70
16523;DHT22;19889;52.546;13.348;2022-07-18T15:02:48;26.30;70.90
16523;DHT22;19889;52.546;13.348;2022-07-18T15:05:15;26.30;70.90
16523;DHT22;19889;52.546;13.348;2022-07-18T15:07:42;26.30;71.10
16523;DHT22;19889;52.546;13.348;2022-07-18T15:10:09;26.30;71.10
16523;DHT22;19889;52.546;13.348;2022-07-18T15:12:36;26.30;71.10
16523;DHT22;19889;52.546;13.348;2022-07-18T15:15:03;26.30;71.10
16523;DHT22;19889;52.546;13.348;2022-07-18T15:17:30;26.20;71.10
16523;DHT22;19889;52.546;13.348;2022-07-18T15:19:58;26.20;71.10
16523;DHT22;19889;52.546;13.348;2022-07-18T15:22:25;26.20;71.20
16523;DHT22;19889;52.546;13.348;2022-07-18T15:24:52;26.10;71.20
16523;DHT22;19889;52.546;13.348;2022-07-18T15:27:19;26.10;71.40